Time;durP1;ratioP1;P1;durP2;ratioP2;P2;SDS_P1;SDS_P2;PMS_P1;PMS_P2;Temp;Humidity;BMP_temperature;BMP_pressure;BME280_temperature;BME280_humidity;BME280_pressure;Samples;Min_cycle;Max_cycle;Signal;HPM_P1;HPM_P2
2023/08/21 00:02:04;;;;;;;14.57;11.25;;;589.30;2432.00;;;;;;4901100;29;20035;-77
2023/08/21 00:04:39;;;;;;;14.93;12.07;;;589.40;2432.00;;;;;;4901412;29;20044;-77
2023/08/21 00:07:06;;;;;;;13.73;11.90;;;588.90;2432.00;;;;;;4901049;29;20392;-78
2023/08/21 00:09:32;;;;;;;17.15;11.85;;;589.20;2432.00;;;;;;4902107;29;20036;-77
2023/08/21 00:16:52;;;;;;;15.30;11.05;;;589.30;2432.00;;;;;;4861247;29;20062;-77
2023/08/21 00:51:54;;;;;;;16.20;12.50;;;589.10;2432.00;;;;;;4860867;29;20089;-79
2023/08/21 02:04:34;;;;;;;;;;;;;;;;;;;;;
2023/08/21 02:08:02;;;;;;;;;;;;;;;;;;;;;
2023/08/21 02:28:45;;;;;;;14.75;12.32;;;563.50;2432.00;;;;;;4646965;30;20046;-78
2023/08/21 06:00:59;;;;;;;18.58;13.85;;;588.80;2432.00;;;;;;4941200;29;20106;-77
2023/08/21 06:35:11;;;;;;;;;;;;;;;;;;;;;
2023/08/21 06:41:15;;;;;;;16.13;11.70;;;614.80;2432.00;;;;;;4860521;29;20036;-79
2023/08/21 07:17:35;;;;;;;15.60;10.02;;;640.80;2432.00;;;;;;4786401;30;20089;-78
2023/08/21 07:23:13;;;;;;;12.23;10.93;;;;;;;;;;4787339;30;20058;-78
2023/08/21 07:26:29;;;;;;;12.20;10.70;;;;;;;;;;4788238;30;20067;-77
2023/08/21 07:35:19;;;;;;;11.32;10.15;;;;;;;;;;4716074;30;20113;-78
2023/08/21 07:37:59;;;;;;;11.57;10.48;;;;;;;;;;4717102;30;20037;-78
2023/08/21 07:43:28;;;;;;;15.60;11.13;;;;;;;;;;4759369;30;20034;-78
2023/08/21 07:56:56;;;;;;;11.63;10.35;;;691.60;2432.00;;;;;;4701438;30;20176;-76
2023/08/21 07:59:37;;;;;;;13.65;10.55;;;;;;;;;;4700353;30;20558;-77
2023/08/21 08:02:28;;;;;;;13.05;10.77;;;;;;;;;;4729181;30;20541;-76
2023/08/21 08:04:59;;;;;;;15.80;11.27;;;692.10;2432.00;;;;;;4728778;30;20586;-76
2023/08/21 08:07:26;;;;;;;14.70;11.25;;;692.00;2432.00;;;;;;4733741;29;20084;-77
2023/08/21 08:13:34;;;;;;;13.90;10.43;;;;;;;;;;4844573;29;20443;-76
2023/08/21 08:16:00;;;;;;;14.95;10.48;;;;;;;;;;4828314;29;20563;-76
2023/08/21 08:18:49;;;;;;;12.02;10.10;;;;;;;;;;4829372;29;20041;-79
2023/08/21 08:21:19;;;;;;;12.98;11.50;;;;;;;;;;4844936;29;20083;-77
2023/08/21 08:26:55;;;;;;;15.52;11.75;;;;;;;;;;4843466;29;20510;-77
2023/08/21 08:29:21;;;;;;;13.57;12.13;;;;;;;;;;4827747;29;20070;-77
2023/08/21 08:31:49;;;;;;;14.23;11.57;;;;;;;;;;4827892;29;20045;-78
2023/08/21 08:34:21;;;;;;;12.85;10.68;;;;;;;;;;4832106;29;20034;-77
2023/08/21 08:36:47;;;;;;;19.85;13.45;;;;;;;;;;4846182;29;20153;-78
2023/08/21 08:39:13;;;;;;;14.45;11.20;;;;;;;;;;4846590;29;20034;-78
2023/08/21 08:41:44;;;;;;;18.60;11.50;;;;;;;;;;4846022;29;20034;-78
2023/08/21 08:44:13;;;;;;;13.63;11.00;;;;;;;;;;4847337;29;20116;-78
2023/08/21 08:49:49;;;;;;;11.60;10.40;;;;;;;;;;4846603;29;20034;-77
2023/08/21 08:58:24;;;;;;;15.15;10.38;;;;;;;;;;4847240;29;20021;-79
2023/08/21 09:00:50;;;;;;;14.32;10.18;;;;;;;;;;4848399;29;20587;-78
2023/08/21 09:03:19;;;;;;;14.48;11.45;;;;;;;;;;4855538;29;20036;-78
2023/08/21 09:05:47;;;;;;;15.50;11.23;;;;;;;;;;4884221;29;20025;-79
2023/08/21 09:08:14;;;;;;;14.18;10.65;;;;;;;;;;4884434;29;20466;-79
2023/08/21 09:10:45;;;;;;;11.95;10.68;;;;;;;;;;4884133;29;20206;-80
2023/08/21 09:13:16;;;;;;;18.40;10.50;;;;;;;;;;4884954;29;20089;-78
2023/08/21 09:15:43;;;;;;;14.82;10.40;;;;;;;;;;4885328;29;20055;-78
2023/08/21 09:18:10;;;;;;;14.13;10.40;;;;;;;;;;4883977;29;20037;-78
2023/08/21 09:20:37;;;;;;;14.48;10.80;;;;;;;;;;4884181;29;20501;-78
2023/08/21 09:23:06;;;;;;;13.90;9.88;;;;;;;;;;4884099;29;20021;-78
2023/08/21 09:25:43;;;;;;;16.20;12.32;;;;;;;;;;4868134;29;20401;-78
2023/08/21 09:28:28;;;;;;;14.30;11.00;;;;;;;;;;4939006;29;20055;-78
2023/08/21 09:31:02;;;;;;;12.18;10.93;;;;;;;;;;4940757;29;20492;-79
2023/08/21 09:33:28;;;;;;;12.45;10.80;;;;;;;;;;4941112;29;20028;-79
2023/08/21 09:35:54;;;;;;;11.77;9.82;;;;;;;;;;4941820;29;20074;-79
2023/08/21 09:38:24;;;;;;;13.23;10.40;;;;;;;;;;4941600;29;20155;-77
2023/08/21 09:40:55;;;;;;;14.85;9.93;;;;;;;;;;4931472;29;20385;-77
2023/08/21 09:43:22;;;;;;;11.02;9.90;;;;;;;;;;4927080;29;20047;-77
2023/08/21 09:45:50;;;;;;;12.93;9.27;;;;;;;;;;4928021;29;20388;-77
2023/08/21 09:48:16;;;;;;;13.90;10.05;;;;;;;;;;4923221;29;20464;-79
2023/08/21 09:50:43;;;;;;;11.82;9.65;;;;;;;;;;4918309;29;20036;-80
2023/08/21 09:53:10;;;;;;;10.65;9.57;;;;;;;;;;4918610;29;20024;-79
2023/08/21 09:55:36;;;;;;;12.27;10.38;;;;;;;;;;4917007;29;20029;-80
2023/08/21 09:58:03;;;;;;;11.93;9.63;;;;;;;;;;4917433;29;20024;-79
2023/08/21 10:00:30;;;;;;;11.68;10.40;;;;;;;;;;4917583;29;20038;-79
2023/08/21 10:02:58;;;;;;;10.90;9.80;;;;;;;;;;4917733;29;20151;-77
2023/08/21 10:05:25;;;;;;;13.15;10.32;;;;;;;;;;4918064;29;20071;-77
2023/08/21 10:07:52;;;;;;;12.57;9.90;;;;;;;;;;4917319;29;20135;-79
2023/08/21 10:10:18;;;;;;;12.18;9.57;;;;;;;;;;4918162;29;20080;-78
2023/08/21 10:12:44;;;;;;;13.35;9.85;;;;;;;;;;4919947;29;20036;-78
2023/08/21 10:15:10;;;;;;;12.98;10.68;;;;;;;;;;4937309;29;20087;-77
2023/08/21 10:17:37;;;;;;;14.07;9.68;;;;;;;;;;4935678;29;20035;-77
2023/08/21 10:20:04;;;;;;;11.48;9.43;;;;;;;;;;4936470;29;20122;-78
2023/08/21 10:22:42;;;;;;;11.05;9.35;;;;;;;;;;4935770;29;20028;-78
2023/08/21 10:25:16;;;;;;;11.63;10.20;;;;;;;;;;4935755;29;20026;-76
2023/08/21 10:27:43;;;;;;;14.40;11.15;;;;;;;;;;4917787;29;20476;-77
2023/08/21 10:30:25;;;;;;;14.38;12.95;;;870.40;2278.40;;;;;;4932385;29;20035;-76
2023/08/21 10:32:53;;;;;;;10.05;9.15;;;870.50;2252.80;;;;;;4936410;29;20027;-77
2023/08/21 10:35:25;;;;;;;10.93;9.55;;;870.60;2252.80;;;;;;4936370;29;20024;-78
2023/08/21 10:38:12;;;;;;;12.75;9.32;;;;;;;;;;4943237;29;20034;-79
2023/08/21 10:40:39;;;;;;;12.70;9.55;;;845.60;2304.00;;;;;;4950165;29;20365;-79
2023/08/21 10:43:38;;;;;;;11.32;8.75;;;845.30;2304.00;;;;;;4946711;29;20028;-78
2023/08/21 10:46:03;;;;;;;17.80;9.98;;;845.40;2304.00;;;;;;4942428;29;20138;-76
2023/08/21 10:48:29;;;;;;;15.25;11.20;;;845.20;2329.60;;;;;;4942174;29;20063;-75
2023/08/21 10:50:55;;;;;;;11.38;10.18;;;845.30;2329.60;;;;;;4942156;29;20040;-76
2023/08/21 10:53:24;;;;;;;11.75;9.45;;;845.60;2304.00;;;;;;4942026;29;20038;-76
2023/08/21 10:55:56;;;;;;;13.02;9.20;;;845.40;2304.00;;;;;;4941851;29;20061;-76
2023/08/21 10:58:23;;;;;;;11.75;9.20;;;;;;;;;;4941748;29;20069;-78
2023/08/21 11:00:58;;;;;;;14.65;9.60;;;;;;;;;;4942963;29;20028;-78
2023/08/21 11:03:24;;;;;;;13.57;12.32;;;845.40;2355.20;;;;;;4942807;29;20028;-78
2023/08/21 11:06:07;;;;;;;11.55;8.35;;;845.20;2380.80;;;;;;4941506;29;20412;-77
2023/08/21 11:08:34;;;;;;;10.38;8.95;;;;;;;;;;4941332;29;20054;-77
2023/08/21 11:11:00;;;;;;;9.57;8.20;;;;;;;;;;4942848;29;20036;-77
2023/08/21 11:13:27;;;;;;;12.68;8.48;;;;;;;;;;4941319;29;20376;-77
2023/08/21 11:15:59;;;;;;;9.68;7.93;;;;;;;;;;4942284;29;20052;-78
2023/08/21 11:18:31;;;;;;;11.07;7.95;;;870.70;2201.60;;;;;;4941351;29;20050;-78
2023/08/21 11:21:12;;;;;;;11.43;9.50;;;870.40;2201.60;;;;;;4942893;29;20115;-77
2023/08/21 11:23:40;;;;;;;9.25;8.02;;;870.40;2201.60;;;;;;4942370;29;20024;-77
2023/08/21 11:26:09;;;;;;;8.45;7.57;;;845.40;2201.60;;;;;;4937156;29;20083;-78
2023/08/21 11:28:35;;;;;;;12.23;10.95;;;845.20;2201.60;;;;;;4941347;29;20032;-78
2023/08/21 11:31:01;;;;;;;13.73;8.70;;;845.30;2252.80;;;;;;4940988;29;20040;-78
2023/08/21 11:33:28;;;;;;;12.32;8.52;;;845.70;2201.60;;;;;;4941121;29;20032;-78
2023/08/21 11:35:57;;;;;;;10.07;9.05;;;870.60;2227.20;;;;;;4941164;29;20039;-77
2023/08/21 11:38:24;;;;;;;13.38;10.25;;;870.60;2176.00;;;;;;4941099;29;20460;-77
2023/08/21 11:41:02;;;;;;;11.70;8.65;;;870.40;2201.60;;;;;;4935325;29;20042;-77
2023/08/21 11:43:41;;;;;;;10.40;8.80;;;870.90;2150.40;;;;;;4922462;29;20075;-80
2023/08/21 11:46:08;;;;;;;14.38;10.52;;;;;;;;;;4901642;29;20116;-77
2023/08/21 11:48:38;;;;;;;13.77;8.85;;;896.00;2099.20;;;;;;4900306;29;20125;-78
2023/08/21 11:51:05;;;;;;;10.83;9.73;;;;;;;;;;4884915;29;20037;-77
2023/08/21 11:53:40;;;;;;;10.48;7.28;;;896.70;1996.80;;;;;;4883908;29;20035;-77
2023/08/21 11:56:16;;;;;;;9.93;6.22;;;896.90;1971.20;;;;;;4900288;29;20045;-78
2023/08/21 11:58:49;;;;;;;9.18;6.97;;;896.80;1894.40;;;;;;4884165;29;20120;-77
2023/08/21 12:01:19;;;;;;;14.93;7.95;;;921.70;1920.00;;;;;;4885728;29;20040;-79
2023/08/21 12:03:45;;;;;;;8.27;6.70;;;;;;;;;;4885027;29;20551;-77
2023/08/21 12:06:12;;;;;;;11.25;7.00;;;;;;;;;;4883812;29;20032;-78
2023/08/21 12:08:38;;;;;;;8.82;6.88;;;;;;;;;;4883774;29;20152;-78
2023/08/21 12:11:04;;;;;;;8.20;6.05;;;;;;;;;;4883800;29;20140;-78
2023/08/21 12:13:31;;;;;;;9.10;6.60;;;;;;;;;;4899359;29;20099;-78
2023/08/21 12:15:57;;;;;;;9.60;6.30;;;;;;;;;;4900715;29;20037;-80
2023/08/21 12:18:24;;;;;;;10.63;6.22;;;;;;;;;;4920725;29;20465;-79
2023/08/21 12:20:50;;;;;;;7.93;6.43;;;;;;;;;;4919840;29;20055;-79
2023/08/21 12:23:16;;;;;;;7.35;5.80;;;;;;;;;;4920396;29;20063;-78
2023/08/21 12:25:43;;;;;;;11.40;7.80;;;;;;;;;;4920028;29;20465;-78
2023/08/21 12:28:09;;;;;;;9.23;6.50;;;;;;;;;;4918307;29;20473;-77
2023/08/21 12:30:35;;;;;;;7.60;6.65;;;;;;;;;;4919420;29;20032;-78
2023/08/21 12:33:01;;;;;;;11.73;6.78;;;;;;;;;;4920513;29;20111;-81
2023/08/21 12:35:27;;;;;;;8.90;7.32;;;;;;;;;;4918904;29;20157;-79
2023/08/21 12:37:57;;;;;;;9.55;6.15;;;;;;;;;;4919289;29;20028;-77
2023/08/21 12:40:23;;;;;;;10.43;7.60;;;;;;;;;;4918974;29;20584;-77
2023/08/21 12:42:50;;;;;;;20.33;9.82;;;;;;;;;;4918707;29;20460;-79
2023/08/21 12:45:16;;;;;;;8.98;7.20;;;;;;;;;;4919269;29;20050;-78
2023/08/21 12:47:43;;;;;;;13.48;12.07;;;;;;;;;;4919372;29;20035;-78
2023/08/21 12:50:09;;;;;;;15.90;9.53;;;;;;;;;;4919802;29;20035;-78
2023/08/21 12:52:35;;;;;;;9.63;7.53;;;;;;;;;;4920170;29;20069;-77
2023/08/21 12:55:04;;;;;;;14.52;8.77;;;;;;;;;;4918347;29;20123;-78
2023/08/21 12:57:31;;;;;;;11.30;8.88;;;;;;;;;;4918678;29;20020;-80
2023/08/21 12:59:57;;;;;;;13.07;8.02;;;;;;;;;;4919093;29;20028;-79
2023/08/21 13:02:23;;;;;;;11.18;9.05;;;;;;;;;;4921178;29;20036;-78
2023/08/21 13:04:49;;;;;;;12.73;9.48;;;;;;;;;;4919992;29;20035;-78
2023/08/21 13:07:15;;;;;;;13.50;8.68;;;;;;;;;;4918556;29;20473;-79
2023/08/21 13:09:41;;;;;;;21.10;12.68;;;;;;;;;;4917695;29;20044;-79
2023/08/21 13:12:08;;;;;;;11.93;10.35;;;;;;;;;;4918499;29;20039;-79
2023/08/21 13:14:34;;;;;;;11.40;10.30;;;;;;;;;;4917733;29;20052;-79
2023/08/21 13:17:00;;;;;;;11.52;9.48;;;;;;;;;;4917849;29;20055;-79
2023/08/21 13:19:26;;;;;;;13.27;10.48;;;;;;;;;;4918448;29;20020;-79
2023/08/21 13:21:54;;;;;;;12.25;9.55;;;;;;;;;;4918266;29;20452;-78
2023/08/21 13:24:21;;;;;;;11.23;8.40;;;;;;;;;;4917754;29;20528;-79
2023/08/21 13:26:53;;;;;;;12.45;8.15;;;;;;;;;;4917694;29;20068;-79
2023/08/21 13:29:19;;;;;;;11.60;9.10;;;;;;;;;;4920392;29;20020;-78
2023/08/21 13:31:45;;;;;;;12.77;10.07;;;;;;;;;;4918890;29;20036;-78
2023/08/21 13:34:11;;;;;;;15.55;12.75;;;;;;;;;;4922748;29;20052;-78
2023/08/21 13:36:38;;;;;;;15.75;9.13;;;;;;;;;;4919473;29;20028;-78
2023/08/21 13:39:06;;;;;;;10.10;8.52;;;;;;;;;;4917318;29;20119;-77
2023/08/21 13:41:32;;;;;;;14.43;8.68;;;;;;;;;;4917525;29;20376;-77
2023/08/21 13:43:58;;;;;;;11.32;8.20;;;;;;;;;;4917217;29;20020;-78
2023/08/21 13:46:24;;;;;;;9.40;8.40;;;;;;;;;;4917776;29;20044;-77
2023/08/21 13:48:50;;;;;;;17.13;12.55;;;;;;;;;;4918189;29;20431;-79
2023/08/21 13:51:16;;;;;;;12.50;11.27;;;;;;;;;;4918541;29;20477;-78
2023/08/21 13:53:42;;;;;;;11.10;8.82;;;;;;;;;;4917759;29;20028;-78
2023/08/21 13:56:08;;;;;;;14.45;8.85;;;;;;;;;;4917401;29;20050;-79
2023/08/21 13:58:35;;;;;;;12.27;9.95;;;;;;;;;;4918658;29;20524;-79
2023/08/21 14:01:01;;;;;;;12.65;9.98;;;;;;;;;;4916812;29;20062;-79
2023/08/21 14:03:27;;;;;;;11.75;9.63;;;;;;;;;;4917768;29;20446;-78
2023/08/21 14:05:53;;;;;;;11.85;9.48;;;;;;;;;;4918606;29;20111;-79
2023/08/21 14:08:19;;;;;;;12.25;8.82;;;;;;;;;;4919488;29;20039;-78
2023/08/21 14:10:45;;;;;;;10.60;9.43;;;;;;;;;;4920683;29;20194;-77
2023/08/21 14:13:11;;;;;;;11.70;9.98;;;;;;;;;;4920185;29;20032;-78
2023/08/21 14:15:38;;;;;;;14.95;12.80;;;;;;;;;;4917835;29;20028;-78
2023/08/21 14:18:04;;;;;;;14.52;11.68;;;;;;;;;;4916639;29;20032;-80
2023/08/21 14:20:31;;;;;;;12.13;9.45;;;;;;;;;;4918473;29;20032;-78
2023/08/21 14:22:57;;;;;;;15.80;11.45;;;;;;;;;;4917024;29;20032;-79
2023/08/21 14:25:23;;;;;;;14.63;10.20;;;;;;;;;;4916859;29;20028;-79
2023/08/21 14:27:49;;;;;;;10.63;9.55;;;;;;;;;;4916790;29;20020;-79
2023/08/21 14:30:15;;;;;;;12.55;9.52;;;;;;;;;;4918741;29;20028;-78
2023/08/21 14:32:42;;;;;;;10.15;8.93;;;;;;;;;;4916545;29;20544;-78
2023/08/21 14:35:08;;;;;;;12.82;9.02;;;;;;;;;;4916459;29;20042;-78
2023/08/21 14:37:39;;;;;;;10.93;8.85;;;;;;;;;;4918327;29;20498;-78
2023/08/21 14:40:09;;;;;;;11.27;8.85;;;;;;;;;;4916457;29;20036;-76
2023/08/21 14:42:35;;;;;;;12.77;10.25;;;;;;;;;;4917122;29;20388;-76
2023/08/21 14:45:03;;;;;;;14.65;10.23;;;;;;;;;;4918181;29;20059;-77
2023/08/21 14:47:29;;;;;;;16.50;9.35;;;;;;;;;;4916608;29;20062;-76
2023/08/21 14:49:55;;;;;;;11.93;10.20;;;;;;;;;;4916778;29;20494;-77
2023/08/21 14:52:21;;;;;;;14.18;10.10;;;;;;;;;;4933895;29;20039;-77
2023/08/21 14:54:54;;;;;;;9.38;8.57;;;;;;;;;;4936513;29;20028;-77
2023/08/21 14:57:20;;;;;;;13.95;9.13;;;;;;;;;;4935900;29;20031;-76
2023/08/21 14:59:47;;;;;;;11.98;9.18;;;;;;;;;;4936737;29;20031;-77
2023/08/21 15:02:13;;;;;;;9.68;8.68;;;;;;;;;;4935488;29;20035;-77
2023/08/21 15:04:39;;;;;;;12.93;10.18;;;;;;;;;;4935761;29;20105;-76
2023/08/21 15:07:05;;;;;;;10.48;9.18;;;;;;;;;;4937030;29;20106;-76
2023/08/21 15:09:31;;;;;;;12.82;11.02;;;;;;;;;;4935429;29;20048;-77
2023/08/21 15:12:00;;;;;;;11.05;9.13;;;;;;;;;;4937418;29;20377;-78
2023/08/21 15:14:27;;;;;;;10.77;8.82;;;;;;;;;;4916732;29;20032;-77
2023/08/21 15:16:53;;;;;;;13.15;9.88;;;;;;;;;;4916698;29;20099;-78
2023/08/21 15:19:19;;;;;;;12.35;9.32;;;;;;;;;;4916796;29;20475;-79
2023/08/21 15:21:45;;;;;;;11.23;10.00;;;;;;;;;;4915784;29;20036;-78
2023/08/21 15:24:11;;;;;;;12.15;10.27;;;;;;;;;;4919027;29;20032;-78
2023/08/21 15:26:37;;;;;;;11.43;9.13;;;;;;;;;;4919885;29;20035;-78
2023/08/21 15:29:03;;;;;;;12.00;10.43;;;;;;;;;;4920364;29;20030;-77
2023/08/21 15:31:29;;;;;;;9.30;7.97;;;;;;;;;;4921514;29;20592;-77
2023/08/21 15:33:55;;;;;;;12.27;10.15;;;;;;;;;;4922434;29;20091;-76
2023/08/21 15:36:22;;;;;;;14.43;11.75;;;;;;;;;;4922818;29;20060;-76
2023/08/21 15:38:48;;;;;;;13.60;12.25;;;;;;;;;;4921856;29;20020;-76
2023/08/21 15:41:14;;;;;;;12.52;10.80;;;;;;;;;;4921113;29;20405;-78
2023/08/21 15:43:40;;;;;;;15.88;10.80;;;;;;;;;;4920263;29;20076;-76
2023/08/21 15:46:06;;;;;;;14.65;10.32;;;;;;;;;;4924730;29;20028;-78
2023/08/21 15:48:32;;;;;;;12.23;8.30;;;;;;;;;;4921893;29;20034;-76
2023/08/21 15:50:59;;;;;;;17.10;10.85;;;;;;;;;;4920267;29;20150;-76
2023/08/21 15:53:25;;;;;;;13.27;9.15;;;;;;;;;;4921806;29;20075;-76
2023/08/21 15:55:51;;;;;;;10.95;9.05;;;;;;;;;;4920530;29;20020;-76
2023/08/21 15:58:17;;;;;;;12.35;8.68;;;;;;;;;;4921052;29;20028;-76
2023/08/21 16:00:43;;;;;;;12.63;9.23;;;;;;;;;;4921739;29;20024;-77
2023/08/21 16:03:09;;;;;;;13.07;9.43;;;;;;;;;;4922367;29;20024;-77
2023/08/21 16:05:36;;;;;;;11.15;9.05;;;;;;;;;;4921580;29;20039;-76
2023/08/21 16:08:02;;;;;;;12.70;9.45;;;;;;;;;;4927456;29;20052;-78
2023/08/21 16:10:28;;;;;;;17.02;10.10;;;;;;;;;;4922437;29;20387;-78
2023/08/21 16:12:54;;;;;;;14.18;9.35;;;;;;;;;;4921813;29;20027;-79
2023/08/21 16:15:21;;;;;;;11.20;9.75;;;;;;;;;;4938755;29;20031;-79
2023/08/21 16:17:47;;;;;;;12.25;9.88;;;;;;;;;;4938182;29;20024;-78
2023/08/21 16:20:15;;;;;;;12.57;10.27;;;;;;;;;;4922564;29;20088;-78
2023/08/21 16:22:41;;;;;;;11.23;10.02;;;;;;;;;;4923123;29;20519;-78
2023/08/21 16:25:08;;;;;;;12.52;11.23;;;;;;;;;;4921389;29;20036;-78
2023/08/21 16:27:34;;;;;;;13.10;11.00;;;;;;;;;;4919113;29;20043;-78
2023/08/21 16:30:00;;;;;;;12.32;11.02;;;;;;;;;;4921935;29;20383;-78
2023/08/21 16:32:26;;;;;;;14.05;12.70;;;;;;;;;;4921323;29;20042;-78
2023/08/21 16:34:53;;;;;;;13.85;11.40;;;;;;;;;;4940420;29;20055;-78
2023/08/21 16:37:19;;;;;;;14.30;12.57;;;;;;;;;;4924479;29;20075;-78
2023/08/21 16:39:45;;;;;;;14.98;12.55;;;;;;;;;;4921519;29;20110;-78
2023/08/21 16:42:12;;;;;;;14.07;11.77;;;;;;;;;;4938136;29;20584;-79
2023/08/21 16:44:38;;;;;;;13.10;11.82;;;;;;;;;;4921177;29;20035;-79
2023/08/21 16:47:06;;;;;;;13.25;11.95;;;;;;;;;;4920797;29;20031;-79
2023/08/21 16:49:32;;;;;;;16.30;12.60;;;;;;;;;;4921131;29;20118;-79
2023/08/21 16:51:58;;;;;;;14.18;11.52;;;;;;;;;;4920967;29;20040;-79
2023/08/21 16:54:24;;;;;;;14.52;13.00;;;;;;;;;;4937736;29;20031;-78
2023/08/21 16:56:51;;;;;;;13.93;12.50;;;;;;;;;;4938316;29;20030;-78
2023/08/21 16:59:17;;;;;;;18.58;16.60;;;;;;;;;;4938081;29;20472;-79
2023/08/21 17:01:43;;;;;;;15.15;12.52;;;;;;;;;;4937709;29;20035;-79
2023/08/21 17:04:09;;;;;;;13.60;12.20;;;;;;;;;;4922052;29;20476;-79
2023/08/21 17:06:35;;;;;;;16.05;11.70;;;;;;;;;;4922405;29;20034;-79
2023/08/21 17:09:04;;;;;;;13.75;12.25;;;;;;;;;;4938426;29;20469;-79
2023/08/21 17:11:30;;;;;;;14.27;11.93;;;;;;;;;;4921315;29;20032;-79
2023/08/21 17:13:56;;;;;;;12.10;10.98;;;;;;;;;;4921431;29;20263;-79
2023/08/21 17:16:22;;;;;;;13.15;11.77;;;;;;;;;;4938496;29;20055;-79
2023/08/21 17:18:48;;;;;;;12.88;11.52;;;;;;;;;;4921539;29;20461;-80
2023/08/21 17:21:15;;;;;;;14.98;13.45;;;;;;;;;;4938138;29;20027;-80
2023/08/21 17:23:41;;;;;;;14.10;12.70;;;;;;;;;;4921797;29;20031;-81
2023/08/21 17:26:07;;;;;;;12.23;11.10;;;;;;;;;;4920878;29;20059;-79
2023/08/21 17:28:33;;;;;;;14.38;13.07;;;;;;;;;;4921145;29;20039;-79
2023/08/21 17:30:59;;;;;;;15.20;13.80;;;;;;;;;;4921315;29;20036;-78
2023/08/21 17:33:25;;;;;;;20.00;16.38;;;;;;;;;;4920928;29;20028;-79
2023/08/21 17:35:51;;;;;;;20.30;16.33;;;;;;;;;;4938312;29;20052;-79
2023/08/21 17:38:17;;;;;;;19.83;14.75;;;;;;;;;;4920476;29;20042;-79
2023/08/21 17:40:44;;;;;;;26.67;23.17;;;;;;;;;;4939080;29;20035;-80
2023/08/21 17:43:10;;;;;;;20.42;18.23;;;;;;;;;;4921003;29;20028;-80
2023/08/21 17:45:36;;;;;;;19.10;16.02;;;;;;;;;;4920734;29;20451;-79
2023/08/21 17:48:03;;;;;;;17.30;13.32;;;;;;;;;;4920578;29;20067;-79
2023/08/21 17:50:29;;;;;;;16.25;12.70;;;;;;;;;;4920889;29;20476;-78
2023/08/21 17:52:55;;;;;;;14.77;12.35;;;;;;;;;;4921449;29;20036;-79
2023/08/21 17:55:21;;;;;;;14.48;12.23;;;;;;;;;;4921484;29;20024;-79
2023/08/21 17:57:47;;;;;;;14.98;12.82;;;;;;;;;;4920682;29;20476;-77
2023/08/21 18:00:15;;;;;;;23.60;17.13;;;;;;;;;;4919926;29;20024;-78
2023/08/21 18:02:41;;;;;;;21.40;17.30;;;;;;;;;;4938004;29;20379;-78
2023/08/21 18:05:07;;;;;;;21.00;17.98;;;;;;;;;;4920128;29;20032;-78
2023/08/21 18:07:33;;;;;;;24.45;19.65;;;;;;;;;;4919405;29;20024;-79
2023/08/21 18:09:59;;;;;;;20.23;16.60;;;;;;;;;;4937735;29;20024;-78
2023/08/21 18:12:25;;;;;;;19.00;17.02;;;;;;;;;;4920927;29;20046;-78
2023/08/21 18:14:51;;;;;;;19.63;17.50;;;;;;;;;;4919684;29;20020;-79
2023/08/21 18:17:18;;;;;;;20.58;16.35;;;;;;;;;;4919756;29;20099;-78
2023/08/21 18:19:44;;;;;;;19.00;16.50;;;;;;;;;;4920130;29;20035;-80
2023/08/21 18:22:10;;;;;;;15.45;12.45;;;;;;;;;;4936195;29;20039;-81
2023/08/21 18:24:36;;;;;;;13.35;11.95;;;;;;;;;;4919600;29;20023;-80
2023/08/21 18:27:03;;;;;;;13.77;12.48;;;;;;;;;;4936431;29;20078;-80
2023/08/21 18:29:29;;;;;;;13.05;10.60;;;;;;;;;;4919386;29;20380;-79
2023/08/21 18:31:55;;;;;;;12.95;11.65;;;;;;;;;;4921576;29;20060;-78
2023/08/21 18:34:21;;;;;;;13.30;11.93;;;;;;;;;;4939043;29;20027;-77
2023/08/21 18:36:47;;;;;;;12.48;11.10;;;;;;;;;;4936705;29;20028;-79
2023/08/21 18:39:13;;;;;;;12.93;11.60;;;;;;;;;;4936633;29;20405;-79
2023/08/21 18:41:42;;;;;;;11.63;10.63;;;;;;;;;;4936239;29;20054;-80
2023/08/21 18:44:09;;;;;;;24.15;18.65;;;;;;;;;;4920713;29;20032;-79
2023/08/21 18:46:36;;;;;;;35.03;22.08;;;;;;;;;;4936801;29;20016;-79
2023/08/21 18:49:02;;;;;;;29.38;20.25;;;;;;;;;;4919318;29;20074;-79
2023/08/21 18:51:28;;;;;;;34.55;20.13;;;;;;;;;;4941855;29;20032;-78
2023/08/21 18:53:54;;;;;;;22.92;17.42;;;;;;;;;;4924844;29;20035;-79
2023/08/21 18:56:20;;;;;;;19.92;16.75;;;;;;;;;;4936948;29;20051;-79
2023/08/21 18:58:47;;;;;;;20.30;16.83;;;;;;;;;;4922360;29;20063;-79
2023/08/21 19:01:13;;;;;;;16.48;14.77;;;;;;;;;;4941069;29;20035;-80
2023/08/21 19:03:39;;;;;;;17.85;14.20;;;;;;;;;;4923596;29;20027;-78
2023/08/21 19:06:05;;;;;;;22.75;14.95;;;;;;;;;;4940966;29;20440;-78
2023/08/21 19:08:31;;;;;;;18.98;13.70;;;;;;;;;;4923419;29;20059;-78
2023/08/21 19:11:01;;;;;;;22.60;14.05;;;;;;;;;;4923445;29;20039;-79
2023/08/21 19:13:27;;;;;;;16.08;14.23;;;;;;;;;;4923710;29;20031;-77
2023/08/21 19:15:53;;;;;;;17.98;13.45;;;;;;;;;;4923912;29;20087;-78
2023/08/21 19:18:20;;;;;;;14.60;13.10;;;;;;;;;;4923818;29;20027;-78
2023/08/21 19:20:46;;;;;;;33.20;29.77;;;;;;;;;;4923801;29;20028;-78
2023/08/21 19:23:13;;;;;;;21.30;18.92;;;;;;;;;;4923531;29;20024;-78
2023/08/21 19:25:39;;;;;;;16.85;15.13;;;;;;;;;;4926190;29;20024;-76
2023/08/21 19:28:05;;;;;;;19.52;15.93;;;;;;;;;;4923867;29;20171;-77
2023/08/21 19:30:35;;;;;;;16.90;14.50;;;;;;;;;;4940645;29;20035;-77
2023/08/21 19:33:01;;;;;;;16.77;15.10;;;;;;;;;;4940582;29;20019;-77
2023/08/21 19:35:27;;;;;;;20.95;15.90;;;;;;;;;;4940440;29;20027;-77
2023/08/21 19:37:53;;;;;;;21.13;15.43;;;;;;;;;;4923423;29;20083;-77
2023/08/21 19:40:21;;;;;;;16.75;14.98;;;;;;;;;;4923244;29;20115;-78
2023/08/21 19:42:47;;;;;;;20.23;16.63;;;;;;;;;;4923934;29;20222;-78
2023/08/21 19:45:18;;;;;;;18.95;15.48;;;;;;;;;;4939770;29;20035;-78
2023/08/21 19:47:44;;;;;;;19.38;16.90;;;;;;;;;;4941019;29;20016;-78
2023/08/21 19:50:11;;;;;;;23.48;16.92;;;;;;;;;;4940315;29;20110;-78
2023/08/21 19:52:37;;;;;;;20.77;16.30;;;;;;;;;;4939233;29;20035;-78
2023/08/21 19:55:03;;;;;;;18.45;15.98;;;;;;;;;;4922440;29;20448;-78
2023/08/21 19:57:29;;;;;;;18.40;16.48;;;;;;;;;;4923043;29;20027;-78
2023/08/21 19:59:55;;;;;;;19.42;15.45;;;;;;;;;;4923109;29;20119;-78
2023/08/21 20:02:21;;;;;;;20.35;15.07;;;;;;;;;;4922599;29;20035;-78
2023/08/21 20:04:47;;;;;;;16.58;14.88;;;;;;;;;;4939492;29;20048;-79
2023/08/21 20:07:13;;;;;;;22.50;18.50;;;;;;;;;;4939571;29;20099;-78
2023/08/21 20:09:39;;;;;;;24.00;19.08;;;;;;;;;;4922444;29;20452;-77
2023/08/21 20:12:06;;;;;;;26.63;17.77;;;;;;;;;;4940194;29;20109;-78
2023/08/21 20:14:32;;;;;;;21.77;16.60;;;;;;;;;;4923049;29;20349;-78
2023/08/21 20:16:59;;;;;;;20.52;16.23;;;;;;;;;;4923444;29;20028;-78
2023/08/21 20:19:26;;;;;;;17.73;15.93;;;;;;;;;;4940312;29;20043;-77
2023/08/21 20:21:56;;;;;;;19.27;16.85;;;;;;;;;;4922931;29;20138;-79
2023/08/21 20:24:24;;;;;;;19.38;17.33;;;;;;;;;;4923563;29;20039;-77
2023/08/21 20:26:50;;;;;;;20.58;18.17;;;;;;;;;;4923212;29;20052;-77
2023/08/21 20:29:16;;;;;;;24.58;19.10;;;;;;;;;;4925387;29;20032;-77
2023/08/21 20:31:42;;;;;;;24.23;18.67;;;;;;;;;;4941938;29;20111;-77
2023/08/21 20:34:09;;;;;;;19.15;17.25;;;;;;;;;;4922079;29;20057;-77
2023/08/21 20:36:36;;;;;;;19.85;17.75;;;;;;;;;;4939393;29;20031;-78
2023/08/21 20:39:03;;;;;;;18.42;16.52;;;;;;;;;;4922795;29;20020;-78
2023/08/21 20:41:29;;;;;;;20.88;16.90;;;;;;;;;;4922774;29;20031;-79
2023/08/21 20:43:55;;;;;;;20.90;16.42;;;;;;;;;;4925959;29;20047;-78
2023/08/21 20:46:21;;;;;;;17.95;15.77;;;;;;;;;;4923126;29;20392;-78
2023/08/21 20:48:47;;;;;;;19.90;15.88;;;;;;;;;;4923057;29;20032;-78
2023/08/21 20:51:14;;;;;;;20.15;16.30;;;;;;;;;;4938980;29;20413;-78
2023/08/21 20:53:40;;;;;;;23.17;20.95;;;;;;;;;;4938734;29;20103;-78
2023/08/21 20:56:06;;;;;;;19.95;17.83;;;;;;;;;;4922954;29;20024;-78
2023/08/21 20:58:32;;;;;;;20.23;16.98;;;;;;;;;;4922556;29;20034;-78
2023/08/21 21:00:58;;;;;;;19.42;17.38;;;;;;;;;;4921993;29;20083;-79
2023/08/21 21:03:24;;;;;;;18.55;15.73;;;665.80;2432.00;;;;;;4906152;29;20176;-77
2023/08/21 21:05:50;;;;;;;17.40;15.68;;;;;;;;;;4924504;29;20484;-78
2023/08/21 21:08:16;;;;;;;18.50;16.52;;;665.70;2432.00;;;;;;4926553;29;20137;-78
2023/08/21 21:10:42;;;;;;;19.63;16.05;;;640.90;2432.00;;;;;;4944100;29;20028;-78
2023/08/21 21:13:08;;;;;;;16.65;15.05;;;640.90;2432.00;;;;;;4938158;29;20024;-78
2023/08/21 21:15:34;;;;;;;19.48;14.57;;;640.80;2432.00;;;;;;4938286;29;20023;-78
2023/08/21 21:18:01;;;;;;;16.30;14.68;;;640.90;2432.00;;;;;;4921403;29;20024;-81
2023/08/21 21:20:27;;;;;;;20.05;17.42;;;640.90;2432.00;;;;;;4922431;29;20282;-79
2023/08/21 21:22:54;;;;;;;16.67;15.18;;;640.80;2432.00;;;;;;4921265;29;20167;-78
2023/08/21 21:25:20;;;;;;;19.73;16.55;;;640.90;2432.00;;;;;;4922220;29;20075;-79
2023/08/21 21:27:45;;;;;;;17.52;15.77;;;640.80;2432.00;;;;;;4921207;29;20036;-79
2023/08/21 21:30:11;;;;;;;17.80;15.82;;;640.70;2432.00;;;;;;4920777;29;20057;-79